createdAt,value
2017-07-30T00:01:26.482Z,22.00
2017-07-30T00:03:54.071Z,22.00
2017-07-30T00:06:21.671Z,22.10
2017-07-30T00:08:49.333Z,22.10
2017-07-30T00:11:17.090Z,22.00
2017-07-30T00:13:45.504Z,22.00
2017-07-30T00:16:13.092Z,22.00
2017-07-30T00:18:40.705Z,22.00
2017-07-30T00:21:08.327Z,22.00
2017-07-30T00:23:35.911Z,21.90
2017-07-30T00:26:04.325Z,22.00
2017-07-30T00:28:32.000Z,21.90
2017-07-30T00:30:59.601Z,21.90
2017-07-30T00:33:27.950Z,21.80
2017-07-30T00:35:55.556Z,21.80
2017-07-30T00:38:24.508Z,21.80
2017-07-30T00:40:52.097Z,21.70
2017-07-30T00:43:19.715Z,21.60
2017-07-30T00:45:47.492Z,21.70
2017-07-30T00:48:15.216Z,21.70
2017-07-30T00:50:42.848Z,21.80
2017-07-30T00:53:11.192Z,21.70
2017-07-30T00:55:38.847Z,21.60
2017-07-30T00:58:06.470Z,21.60
2017-07-30T01:00:34.831Z,21.50
2017-07-30T01:03:02.583Z,21.50
2017-07-30T01:05:30.318Z,21.40
2017-07-30T01:07:57.928Z,21.40
2017-07-30T01:10:26.282Z,21.30
2017-07-30T01:12:54.048Z,21.30
2017-07-30T01:15:21.656Z,21.40
2017-07-30T01:17:49.244Z,21.40
2017-07-30T01:20:16.937Z,21.30
2017-07-30T01:22:44.536Z,21.20
2017-07-30T01:25:12.157Z,21.20
2017-07-30T01:27:39.788Z,21.30
2017-07-30T01:30:07.372Z,21.30
2017-07-30T01:32:34.950Z,21.30
2017-07-30T01:35:03.352Z,21.40
2017-07-30T01:37:31.053Z,21.40
2017-07-30T01:39:58.640Z,21.40
2017-07-30T01:42:26.749Z,21.40
2017-07-30T01:44:54.356Z,21.50
2017-07-30T01:47:21.978Z,21.40
2017-07-30T01:49:49.598Z,21.30
2017-07-30T01:52:17.256Z,21.20
2017-07-30T01:54:44.846Z,21.30
2017-07-30T01:57:12.506Z,21.30
2017-07-30T01:59:40.853Z,21.40
2017-07-30T02:02:08.509Z,21.40
2017-07-30T02:04:36.155Z,21.40
2017-07-30T02:07:03.807Z,21.30
2017-07-30T02:09:31.410Z,21.30
2017-07-30T02:11:59.153Z,21.20
2017-07-30T02:14:26.773Z,21.20
2017-07-30T02:16:54.371Z,21.20
2017-07-30T02:19:22.050Z,21.20
2017-07-30T02:21:49.629Z,21.20
2017-07-30T02:24:17.980Z,21.30
2017-07-30T02:26:45.726Z,21.30
2017-07-30T02:29:13.358Z,21.20
2017-07-30T02:31:40.961Z,21.20
2017-07-30T02:34:08.579Z,21.10
2017-07-30T02:36:36.235Z,21.00
2017-07-30T02:39:03.840Z,21.00
2017-07-30T02:41:31.498Z,20.80
2017-07-30T02:43:59.251Z,20.70
2017-07-30T02:46:26.870Z,20.60
2017-07-30T02:48:55.354Z,20.50
2017-07-30T02:51:23.761Z,20.40
2017-07-30T02:53:51.427Z,20.40
2017-07-30T02:56:19.044Z,20.30
2017-07-30T02:58:47.425Z,20.30
2017-07-30T03:01:15.965Z,20.40
2017-07-30T03:03:43.629Z,20.40
2017-07-30T03:06:11.201Z,20.30
2017-07-30T03:08:38.786Z,20.20
2017-07-30T03:11:07.215Z,20.30
2017-07-30T03:13:34.796Z,20.30
2017-07-30T03:16:02.373Z,20.20
2017-07-30T03:18:30.086Z,20.20
2017-07-30T03:20:57.693Z,20.20
2017-07-30T03:23:26.096Z,20.10
2017-07-30T03:25:53.754Z,20.10
2017-07-30T03:28:22.126Z,19.90
2017-07-30T03:30:49.783Z,19.90
2017-07-30T03:33:17.389Z,19.90
2017-07-30T03:35:45.000Z,20.00
2017-07-30T03:38:12.706Z,20.10
2017-07-30T03:40:40.326Z,20.20
2017-07-30T03:43:08.055Z,20.30
2017-07-30T03:45:35.624Z,20.50
2017-07-30T03:48:03.235Z,20.60
2017-07-30T03:50:31.594Z,20.60
2017-07-30T03:52:59.182Z,20.60
2017-07-30T03:55:26.837Z,20.70
2017-07-30T03:57:54.451Z,20.70
2017-07-30T04:00:22.050Z,20.90
2017-07-30T04:02:50.416Z,21.30
2017-07-30T04:05:18.146Z,21.30
2017-07-30T04:07:45.711Z,21.30
2017-07-30T04:10:13.471Z,21.30
2017-07-30T04:12:41.053Z,21.30
2017-07-30T04:15:08.671Z,21.40
2017-07-30T04:17:36.318Z,21.40
2017-07-30T04:20:04.018Z,21.30
2017-07-30T04:22:31.602Z,21.20
2017-07-30T04:24:59.285Z,21.10
2017-07-30T04:27:27.663Z,21.10
2017-07-30T04:29:56.132Z,21.20
2017-07-30T04:32:23.966Z,21.20
2017-07-30T04:34:51.544Z,21.10
2017-07-30T04:37:20.119Z,21.10
2017-07-30T04:39:47.742Z,21.20
2017-07-30T04:42:15.335Z,21.10
2017-07-30T04:44:42.909Z,21.20
2017-07-30T04:47:10.589Z,21.30
2017-07-30T04:49:38.228Z,21.50
2017-07-30T04:52:06.056Z,21.50
2017-07-30T04:54:33.668Z,21.60
2017-07-30T04:57:01.361Z,21.50
2017-07-30T04:59:28.955Z,21.40
2017-07-30T05:01:56.657Z,21.30
2017-07-30T05:04:27.861Z,21.30
2017-07-30T05:06:55.480Z,21.50
2017-07-30T05:09:24.436Z,23.30
2017-07-30T05:11:52.158Z,23.20
2017-07-30T05:14:19.757Z,23.80
2017-07-30T05:16:47.438Z,24.00
2017-07-30T05:19:15.145Z,23.30
2017-07-30T05:21:42.722Z,22.90
2017-07-30T05:24:10.722Z,23.00
2017-07-30T05:26:38.402Z,23.20
2017-07-30T05:29:06.915Z,22.90
2017-07-30T05:31:34.567Z,22.90
2017-07-30T05:34:02.165Z,23.10
2017-07-30T05:36:29.750Z,23.40
2017-07-30T05:38:57.447Z,23.60
2017-07-30T05:41:25.791Z,23.70
2017-07-30T05:43:53.452Z,23.70
2017-07-30T05:46:21.089Z,24.00
2017-07-30T05:48:48.887Z,24.10
2017-07-30T05:51:16.922Z,24.30
2017-07-30T05:53:44.632Z,24.10
2017-07-30T05:56:12.343Z,24.20
2017-07-30T05:58:39.963Z,24.10
2017-07-30T06:01:08.088Z,24.00
2017-07-30T06:03:36.135Z,23.80
2017-07-30T06:06:03.825Z,23.60
2017-07-30T06:08:31.740Z,23.40
2017-07-30T06:10:59.540Z,23.10
2017-07-30T06:13:27.948Z,22.80
2017-07-30T06:15:55.685Z,22.80
2017-07-30T06:18:23.500Z,22.70
2017-07-30T06:20:51.225Z,22.70
2017-07-30T06:23:18.836Z,22.70
2017-07-30T06:25:47.195Z,22.70
2017-07-30T06:28:14.851Z,22.70
2017-07-30T06:30:42.475Z,22.90
2017-07-30T06:33:10.063Z,22.70
2017-07-30T06:35:37.671Z,22.70
2017-07-30T06:38:05.386Z,22.90
2017-07-30T06:40:33.033Z,22.90
2017-07-30T06:43:00.656Z,23.80
2017-07-30T06:45:28.389Z,24.00
2017-07-30T06:47:56.033Z,24.10
2017-07-30T06:50:23.608Z,24.70
2017-07-30T06:52:51.280Z,24.10
2017-07-30T06:55:18.989Z,23.80
2017-07-30T06:57:46.579Z,23.70
2017-07-30T07:00:14.201Z,23.70
2017-07-30T07:02:41.892Z,24.70
2017-07-30T07:05:09.490Z,24.40
2017-07-30T07:07:37.916Z,24.20
2017-07-30T07:10:05.547Z,24.20
2017-07-30T07:12:33.191Z,24.60
2017-07-30T07:15:00.797Z,24.70
2017-07-30T07:17:29.477Z,25.20
2017-07-30T07:19:58.471Z,24.90
2017-07-30T07:22:26.155Z,24.50
2017-07-30T07:24:53.738Z,24.30
2017-07-30T07:27:21.401Z,24.40
2017-07-30T07:29:49.029Z,24.60
2017-07-30T07:32:16.614Z,24.90
2017-07-30T07:34:44.188Z,24.50
2017-07-30T07:37:12.025Z,24.40
2017-07-30T07:39:39.728Z,24.90
2017-07-30T07:42:07.351Z,24.30
2017-07-30T07:44:34.994Z,24.10
2017-07-30T07:47:02.596Z,24.30
2017-07-30T07:49:30.181Z,24.30
2017-07-30T07:51:58.557Z,25.60
2017-07-30T07:54:26.966Z,25.00
2017-07-30T07:56:54.549Z,25.00
2017-07-30T07:59:22.281Z,24.80
2017-07-30T08:01:49.912Z,25.40
2017-07-30T08:04:18.333Z,25.80
2017-07-30T08:06:45.960Z,25.80
2017-07-30T08:09:14.309Z,24.50
2017-07-30T08:11:41.955Z,24.50
2017-07-30T08:14:09.569Z,24.10
2017-07-30T08:16:37.971Z,23.90
2017-07-30T08:19:06.403Z,23.90
2017-07-30T08:21:35.307Z,24.40
2017-07-30T08:24:02.995Z,24.50
2017-07-30T08:26:30.581Z,24.40
2017-07-30T08:28:58.219Z,24.70
2017-07-30T08:31:25.872Z,24.80
2017-07-30T08:33:54.260Z,24.10
2017-07-30T08:36:21.887Z,24.10
2017-07-30T08:38:49.468Z,23.80
2017-07-30T08:41:17.884Z,24.20
2017-07-30T08:43:45.602Z,24.20
2017-07-30T08:46:13.964Z,25.10
2017-07-30T08:48:41.553Z,25.10
2017-07-30T08:51:10.013Z,26.00
2017-07-30T08:53:38.417Z,26.40
2017-07-30T08:56:06.029Z,26.40
2017-07-30T08:58:33.675Z,25.70
2017-07-30T09:01:01.383Z,25.70
2017-07-30T09:03:29.744Z,25.40
2017-07-30T09:05:57.401Z,25.30
2017-07-30T09:08:25.200Z,25.00
2017-07-30T09:10:53.674Z,24.90
2017-07-30T09:13:21.343Z,24.80
2017-07-30T09:15:49.716Z,25.40
2017-07-30T09:18:18.083Z,25.10
2017-07-30T09:20:45.788Z,25.10
2017-07-30T09:23:13.377Z,24.80
2017-07-30T09:25:41.036Z,24.40
2017-07-30T09:28:08.720Z,24.00
2017-07-30T09:33:10.279Z,23.60
2017-07-30T09:35:37.958Z,23.50
2017-07-30T09:38:05.610Z,23.50
2017-07-30T09:40:33.459Z,23.80
2017-07-30T09:43:01.202Z,24.80
2017-07-30T09:45:28.896Z,25.80
2017-07-30T09:47:56.501Z,26.90
2017-07-30T09:50:24.158Z,26.40
2017-07-30T09:52:52.581Z,26.50
2017-07-30T09:55:20.210Z,26.40
2017-07-30T09:57:47.816Z,27.10
2017-07-30T10:00:15.580Z,27.40
2017-07-30T10:02:43.227Z,27.10
2017-07-30T10:05:10.822Z,26.70
2017-07-30T10:07:38.397Z,26.80
2017-07-30T10:10:06.897Z,26.00
2017-07-30T10:12:34.562Z,26.00
2017-07-30T10:15:02.159Z,25.90
2017-07-30T10:17:29.976Z,25.60
2017-07-30T10:19:58.433Z,25.80
2017-07-30T10:22:26.095Z,25.70
2017-07-30T10:24:53.737Z,25.70
2017-07-30T10:27:21.375Z,25.70
2017-07-30T10:29:48.988Z,25.90
2017-07-30T10:32:17.367Z,26.00
2017-07-30T10:34:45.001Z,25.90
2017-07-30T10:37:12.741Z,26.10
2017-07-30T10:39:41.546Z,26.40
2017-07-30T10:42:09.200Z,26.40
2017-07-30T10:44:36.814Z,27.00
2017-07-30T10:47:05.308Z,26.60
2017-07-30T10:49:32.959Z,26.50
2017-07-30T10:52:01.312Z,26.90
2017-07-30T10:54:29.045Z,26.90
2017-07-30T10:56:56.726Z,26.80
2017-07-30T10:59:24.703Z,26.60
2017-07-30T11:01:52.448Z,27.70
2017-07-30T11:04:20.123Z,27.50
2017-07-30T11:06:47.894Z,27.10
2017-07-30T11:09:16.691Z,26.70
2017-07-30T11:11:44.343Z,25.90
2017-07-30T11:14:12.007Z,25.50
2017-07-30T11:16:39.706Z,25.10
2017-07-30T11:19:08.059Z,26.10
2017-07-30T11:21:35.638Z,26.10
2017-07-30T11:24:03.709Z,26.70
2017-07-30T11:26:32.062Z,27.60
2017-07-30T11:28:59.728Z,27.60
2017-07-30T11:31:28.128Z,28.30
2017-07-30T11:33:56.564Z,27.90
2017-07-30T11:36:24.179Z,27.80
2017-07-30T11:38:51.855Z,27.80
2017-07-30T11:41:19.453Z,28.10
2017-07-30T11:43:47.046Z,28.10
2017-07-30T11:46:15.434Z,28.20
2017-07-30T11:48:43.094Z,28.20
2017-07-30T11:51:11.844Z,27.80
2017-07-30T11:53:39.579Z,27.80
2017-07-30T11:56:07.164Z,28.10
2017-07-30T11:58:34.766Z,27.30
2017-07-30T12:01:03.252Z,28.00
2017-07-30T12:03:30.834Z,28.00
2017-07-30T12:05:58.414Z,28.30
2017-07-30T12:08:26.096Z,28.00
2017-07-30T12:10:53.841Z,27.80
2017-07-30T12:13:21.441Z,28.20
2017-07-30T12:15:49.865Z,28.00
2017-07-30T12:18:17.493Z,28.10
2017-07-30T12:20:45.871Z,27.20
2017-07-30T12:23:14.259Z,27.30
2017-07-30T12:25:41.925Z,27.30
2017-07-30T12:28:10.750Z,27.00
2017-07-30T12:30:38.511Z,26.20
2017-07-30T12:33:06.222Z,26.70
2017-07-30T12:35:33.809Z,26.30
2017-07-30T12:38:01.460Z,26.60
2017-07-30T12:40:29.899Z,27.00
2017-07-30T12:42:57.492Z,27.00
2017-07-30T12:45:25.972Z,26.40
2017-07-30T12:47:53.618Z,26.40
2017-07-30T12:50:21.241Z,25.90
2017-07-30T12:52:48.867Z,26.60
2017-07-30T12:55:16.555Z,27.50
2017-07-30T12:57:44.138Z,27.70
2017-07-30T13:00:11.788Z,28.30
2017-07-30T13:02:39.552Z,28.40
2017-07-30T13:05:07.179Z,28.20
2017-07-30T13:07:34.793Z,28.10
2017-07-30T13:10:02.432Z,28.00
2017-07-30T13:12:30.024Z,27.80
2017-07-30T13:15:07.309Z,27.80
2017-07-30T13:17:38.110Z,27.70
2017-07-30T13:20:05.745Z,27.60
2017-07-30T13:22:33.320Z,27.70
2017-07-30T13:25:00.995Z,27.90
2017-07-30T13:27:32.198Z,27.90
2017-07-30T13:30:00.107Z,28.20
2017-07-30T13:32:27.692Z,28.40
2017-07-30T13:34:55.327Z,28.30
2017-07-30T13:37:22.958Z,27.70
2017-07-30T13:39:50.575Z,27.60
2017-07-30T13:42:18.193Z,27.60
2017-07-30T13:44:45.811Z,27.70
2017-07-30T13:47:13.447Z,27.20
2017-07-30T13:49:41.076Z,27.00
2017-07-30T13:52:08.724Z,27.40
2017-07-30T13:54:36.340Z,27.20
2017-07-30T13:57:03.966Z,27.20
2017-07-30T13:59:31.544Z,26.60
2017-07-30T14:01:59.205Z,26.90
2017-07-30T14:04:26.829Z,27.30
2017-07-30T14:06:55.182Z,27.10
2017-07-30T14:09:22.863Z,27.10
2017-07-30T14:11:51.317Z,27.10
2017-07-30T14:14:18.900Z,27.10
2017-07-30T14:16:47.276Z,27.00
2017-07-30T14:19:14.971Z,27.00
2017-07-30T14:21:42.572Z,26.40
2017-07-30T14:24:10.153Z,25.90
2017-07-30T14:26:37.857Z,25.60
2017-07-30T14:29:05.442Z,25.70
2017-07-30T14:31:33.028Z,26.00
2017-07-30T14:34:00.643Z,26.10
2017-07-30T14:36:28.321Z,26.20
2017-07-30T14:38:56.027Z,26.00
2017-07-30T14:41:23.807Z,26.00
2017-07-30T14:43:51.887Z,25.80
2017-07-30T14:46:19.513Z,25.60
2017-07-30T14:48:47.127Z,25.70
2017-07-30T14:51:14.725Z,26.10
2017-07-30T14:53:42.361Z,26.60
2017-07-30T14:56:09.965Z,26.80
2017-07-30T14:58:37.596Z,26.60
2017-07-30T15:01:05.255Z,26.20
2017-07-30T15:03:32.886Z,26.40
2017-07-30T15:06:00.466Z,26.10
2017-07-30T15:08:28.169Z,25.50
2017-07-30T15:10:55.794Z,25.70
2017-07-30T15:13:23.377Z,25.90
2017-07-30T15:15:50.979Z,26.20
2017-07-30T15:18:19.399Z,26.60
2017-07-30T15:20:46.982Z,26.50
2017-07-30T15:23:14.620Z,25.90
2017-07-30T15:25:42.248Z,26.40
2017-07-30T15:28:09.842Z,26.40
2017-07-30T15:30:37.455Z,26.00
2017-07-30T15:33:05.895Z,26.00
2017-07-30T15:35:33.579Z,26.00
2017-07-30T15:38:01.190Z,25.90
2017-07-30T15:40:28.812Z,25.80
2017-07-30T15:42:57.154Z,25.70
2017-07-30T15:45:24.757Z,25.70
2017-07-30T15:47:53.128Z,26.10
2017-07-30T15:50:20.715Z,26.10
2017-07-30T15:52:48.358Z,26.20
2017-07-30T15:55:16.816Z,26.30
2017-07-30T15:57:44.389Z,26.30
2017-07-30T16:00:12.748Z,25.80
2017-07-30T16:02:40.445Z,25.80
2017-07-30T16:05:08.053Z,25.70
2017-07-30T16:07:35.648Z,25.70
2017-07-30T16:10:03.326Z,25.60
2017-07-30T16:12:31.682Z,25.20
2017-07-30T16:14:59.291Z,25.10
2017-07-30T16:17:26.916Z,25.20
2017-07-30T16:19:55.297Z,24.60
2017-07-30T16:22:23.727Z,24.90
2017-07-30T16:24:51.336Z,24.80
2017-07-30T16:27:19.768Z,25.40
2017-07-30T16:29:47.400Z,25.40
2017-07-30T16:32:15.103Z,25.60
2017-07-30T16:34:42.773Z,25.30
2017-07-30T16:37:10.375Z,24.90
2017-07-30T16:39:38.854Z,24.40
2017-07-30T16:42:07.201Z,24.50
2017-07-30T16:44:34.807Z,24.40
2017-07-30T16:47:02.483Z,24.40
2017-07-30T16:49:30.142Z,24.50
2017-07-30T16:51:57.721Z,24.60
2017-07-30T16:54:25.340Z,24.30
2017-07-30T16:56:53.148Z,24.30
2017-07-30T16:59:21.875Z,24.10
2017-07-30T17:01:50.270Z,23.80
2017-07-30T17:04:18.637Z,23.80
2017-07-30T17:06:46.307Z,23.80
2017-07-30T17:09:14.928Z,23.60
2017-07-30T17:11:42.518Z,23.60
2017-07-30T17:14:10.150Z,23.60
2017-07-30T17:16:37.856Z,23.60
2017-07-30T17:19:05.455Z,23.50
2017-07-30T17:21:33.116Z,23.40
2017-07-30T17:24:00.950Z,23.30
2017-07-30T17:26:28.577Z,23.20
2017-07-30T17:28:56.187Z,23.10
2017-07-30T17:31:24.592Z,22.80
2017-07-30T17:33:52.217Z,22.80
2017-07-30T17:36:20.565Z,22.70
2017-07-30T17:38:48.179Z,22.70
2017-07-30T17:41:15.889Z,22.70
2017-07-30T17:43:43.483Z,22.70
2017-07-30T17:46:11.894Z,22.70
2017-07-30T17:48:40.964Z,22.60
2017-07-30T17:51:09.544Z,22.70
2017-07-30T17:53:37.235Z,22.80
2017-07-30T17:56:04.833Z,22.80
2017-07-30T17:58:33.228Z,22.90
2017-07-30T18:01:02.020Z,22.80
2017-07-30T18:03:31.322Z,22.80
2017-07-30T18:05:59.697Z,22.70
2017-07-30T18:08:28.195Z,22.60
2017-07-30T18:10:56.010Z,22.50
2017-07-30T18:13:24.119Z,22.40
2017-07-30T18:15:52.743Z,22.40
2017-07-30T18:18:20.597Z,22.20
2017-07-30T18:20:48.947Z,22.10
2017-07-30T18:23:16.566Z,22.00
2017-07-30T18:25:44.209Z,21.90
2017-07-30T18:28:11.929Z,21.90
2017-07-30T18:30:39.549Z,21.80
2017-07-30T18:33:07.157Z,21.70
2017-07-30T18:35:34.759Z,21.60
2017-07-30T18:38:02.408Z,21.70
2017-07-30T18:40:30.085Z,21.70
2017-07-30T18:42:57.734Z,21.60
2017-07-30T18:45:25.657Z,21.50
2017-07-30T18:47:54.165Z,21.40
2017-07-30T18:50:21.856Z,21.40
2017-07-30T18:52:50.694Z,21.30
2017-07-30T18:55:19.448Z,21.10
2017-07-30T18:57:47.323Z,21.10
2017-07-30T19:00:18.370Z,21.10
2017-07-30T19:02:46.372Z,21.10
2017-07-30T19:05:14.325Z,21.20
2017-07-30T19:07:42.326Z,21.20
2017-07-30T19:10:10.357Z,21.30
2017-07-30T19:12:38.311Z,21.40
2017-07-30T19:15:06.265Z,21.30
2017-07-30T19:17:34.210Z,21.40
2017-07-30T19:20:02.350Z,21.30
2017-07-30T19:22:30.353Z,21.30
2017-07-30T19:24:58.364Z,21.20
2017-07-30T19:27:27.498Z,21.00
2017-07-30T19:29:55.709Z,21.00
2017-07-30T19:32:23.765Z,20.90
2017-07-30T19:34:51.653Z,21.00
2017-07-30T19:37:19.994Z,20.90
2017-07-30T19:39:47.913Z,20.90
2017-07-30T19:42:15.958Z,21.00
2017-07-30T19:44:45.948Z,21.00
2017-07-30T19:47:14.523Z,20.90
2017-07-30T19:49:43.512Z,20.80
2017-07-30T19:52:11.513Z,20.80
2017-07-30T19:54:40.351Z,20.80
2017-07-30T19:57:10.364Z,20.80
2017-07-30T19:59:40.170Z,20.80
2017-07-30T20:02:07.890Z,20.80
2017-07-30T20:04:36.369Z,20.80
2017-07-30T20:07:04.980Z,20.80
2017-07-30T20:09:32.579Z,20.70
2017-07-30T20:12:00.149Z,20.70
2017-07-30T20:14:27.814Z,20.70
2017-07-30T20:16:55.483Z,20.70
2017-07-30T20:19:23.144Z,20.70
2017-07-30T20:21:50.817Z,20.70
2017-07-30T20:24:18.586Z,20.60
2017-07-30T20:26:46.961Z,20.50
2017-07-30T20:29:15.435Z,20.40
2017-07-30T20:31:43.078Z,20.30
2017-07-30T20:34:10.658Z,20.20
2017-07-30T20:36:38.386Z,20.10
2017-07-30T20:39:06.077Z,20.00
2017-07-30T20:41:33.674Z,19.90
2017-07-30T20:44:01.347Z,19.80
2017-07-30T20:46:28.948Z,19.80
2017-07-30T20:48:56.554Z,19.70
2017-07-30T20:51:24.168Z,19.50
2017-07-30T20:53:52.040Z,19.60
2017-07-30T20:56:19.689Z,19.60
2017-07-30T20:58:47.304Z,19.70
2017-07-30T21:01:14.921Z,19.70
2017-07-30T21:03:42.558Z,19.50
2017-07-30T21:06:10.271Z,19.40
2017-07-30T21:08:38.635Z,19.50
2017-07-30T21:11:06.295Z,19.50
2017-07-30T21:13:33.936Z,19.60
2017-07-30T21:16:01.552Z,19.60
2017-07-30T21:18:29.193Z,19.50
2017-07-30T21:20:57.649Z,19.50
2017-07-30T21:23:25.266Z,19.50
2017-07-30T21:25:53.033Z,19.60
2017-07-30T21:28:20.699Z,19.50
2017-07-30T21:30:48.352Z,19.40
2017-07-30T21:33:15.938Z,19.40
2017-07-30T21:35:43.649Z,19.30
2017-07-30T21:38:12.151Z,19.20
2017-07-30T21:40:39.868Z,19.20
2017-07-30T21:43:07.554Z,19.10
2017-07-30T21:45:35.928Z,19.20
2017-07-30T21:48:03.531Z,19.20
2017-07-30T21:50:31.159Z,19.20
2017-07-30T21:52:59.519Z,19.20
2017-07-30T21:55:27.153Z,19.10
2017-07-30T21:57:54.781Z,19.10
2017-07-30T22:00:22.420Z,19.10
2017-07-30T22:02:50.792Z,18.90
2017-07-30T22:05:18.480Z,18.90
2017-07-30T22:07:46.092Z,18.80
2017-07-30T22:10:13.770Z,18.70
2017-07-30T22:12:41.391Z,18.70
2017-07-30T22:15:09.039Z,18.70
2017-07-30T22:17:36.644Z,18.70
2017-07-30T22:20:04.291Z,18.80
2017-07-30T22:22:31.874Z,18.80
2017-07-30T22:24:59.459Z,18.80
2017-07-30T22:27:27.880Z,19.00
2017-07-30T22:29:55.492Z,19.00
2017-07-30T22:32:23.859Z,18.90
2017-07-30T22:34:51.533Z,18.90
2017-07-30T22:37:19.929Z,18.90
2017-07-30T22:39:47.628Z,18.80
2017-07-30T22:42:15.256Z,18.90
2017-07-30T22:44:42.903Z,18.90
2017-07-30T22:47:11.305Z,18.90
2017-07-30T22:49:38.942Z,19.00
2017-07-30T22:52:07.310Z,18.90
2017-07-30T22:54:35.698Z,18.80
2017-07-30T22:57:04.128Z,18.70
2017-07-30T22:59:31.706Z,18.70
2017-07-30T23:01:59.305Z,18.40
2017-07-30T23:04:27.691Z,18.20
2017-07-30T23:06:55.668Z,18.20
2017-07-30T23:09:23.395Z,18.20
2017-07-30T23:11:51.029Z,18.20
2017-07-30T23:14:18.712Z,18.30
2017-07-30T23:16:46.395Z,18.20
2017-07-30T23:19:14.776Z,18.10
2017-07-30T23:21:43.142Z,18.00
2017-07-30T23:24:10.792Z,18.00
2017-07-30T23:26:38.407Z,18.00
2017-07-30T23:29:06.002Z,18.00
2017-07-30T23:31:33.652Z,17.90
2017-07-30T23:34:01.416Z,18.00
2017-07-30T23:36:29.007Z,18.10
2017-07-30T23:38:56.607Z,18.20
2017-07-30T23:41:24.427Z,18.20
2017-07-30T23:43:52.006Z,18.10
2017-07-30T23:46:19.589Z,18.00
2017-07-30T23:48:47.271Z,17.90
2017-07-30T23:51:14.935Z,17.90
2017-07-30T23:53:42.546Z,17.80
2017-07-30T23:56:10.210Z,17.80
2017-07-30T23:58:37.805Z,17.80
